createdAt,value
2019-05-14T00:00:13.535Z,10.03
2019-05-14T00:02:46.939Z,10.17
2019-05-14T00:05:15.887Z,14.00
2019-05-14T00:07:44.673Z,10.87
2019-05-14T00:10:11.912Z,11.93
2019-05-14T00:12:44.947Z,13.57
2019-05-14T00:15:12.024Z,14.70
2019-05-14T00:17:38.271Z,12.07
2019-05-14T00:20:13.175Z,14.23
2019-05-14T00:22:41.733Z,14.03
2019-05-14T00:25:08.218Z,13.03
2019-05-14T00:27:36.104Z,12.67
2019-05-14T00:30:04.523Z,16.37
2019-05-14T00:32:31.778Z,13.40
2019-05-14T00:34:58.101Z,13.17
2019-05-14T00:37:24.398Z,13.00
2019-05-14T00:39:52.131Z,13.67
2019-05-14T00:42:18.695Z,14.40
2019-05-14T00:44:54.510Z,12.73
2019-05-14T00:47:14.085Z,14.77
2019-05-14T00:49:42.525Z,15.07
2019-05-14T00:52:11.511Z,12.73
2019-05-14T00:54:37.502Z,14.67
2019-05-14T00:57:03.963Z,12.40
2019-05-14T00:59:32.230Z,15.33
2019-05-14T01:01:58.746Z,14.17
2019-05-14T01:04:24.971Z,13.60
2019-05-14T01:06:51.317Z,12.17
2019-05-14T01:09:17.439Z,14.00
2019-05-14T01:11:43.701Z,14.90
2019-05-14T01:14:12.020Z,14.33
2019-05-14T01:16:38.301Z,14.93
2019-05-14T01:19:04.699Z,13.87
2019-05-14T01:21:31.341Z,16.60
2019-05-14T01:23:57.654Z,17.67
2019-05-14T01:26:23.999Z,14.80
2019-05-14T01:28:51.339Z,14.50
2019-05-14T01:31:17.958Z,16.40
2019-05-14T01:33:44.351Z,13.77
2019-05-14T01:36:12.372Z,16.93
2019-05-14T01:38:38.981Z,15.67
2019-05-14T01:41:05.519Z,15.57
2019-05-14T01:43:32.308Z,15.50
2019-05-14T01:46:01.616Z,15.07
2019-05-14T01:48:31.139Z,18.03
2019-05-14T01:50:57.377Z,15.43
2019-05-14T01:53:23.929Z,16.60
2019-05-14T01:55:52.008Z,15.77
2019-05-14T01:58:18.742Z,15.07
2019-05-14T02:00:45.408Z,15.23
2019-05-14T02:03:12.194Z,16.37
2019-05-14T02:05:41.720Z,18.00
2019-05-14T02:08:08.352Z,19.07
2019-05-14T02:10:34.817Z,17.27
2019-05-14T02:13:01.989Z,17.13
2019-05-14T02:15:39.587Z,15.63
2019-05-14T02:18:02.388Z,19.03
2019-05-14T02:20:32.171Z,18.00
2019-05-14T02:23:01.324Z,18.03
2019-05-14T02:25:27.405Z,16.50
2019-05-14T02:27:53.556Z,16.80
2019-05-14T02:30:28.522Z,16.40
2019-05-14T02:32:49.822Z,15.50
2019-05-14T02:35:16.192Z,18.73
2019-05-14T02:37:43.470Z,17.43
2019-05-14T02:40:10.346Z,16.40
2019-05-14T02:42:39.646Z,17.53
2019-05-14T02:45:08.953Z,16.10
2019-05-14T02:47:39.325Z,15.93
2019-05-14T02:50:05.001Z,21.00
2019-05-14T02:52:40.239Z,16.47
2019-05-14T02:55:09.417Z,18.03
2019-05-14T02:57:35.873Z,17.90
2019-05-14T03:00:10.083Z,20.80
2019-05-14T03:02:40.047Z,18.57
2019-05-14T03:05:05.270Z,20.23
2019-05-14T03:07:38.988Z,21.33
2019-05-14T03:10:04.693Z,18.33
2019-05-14T03:12:31.849Z,20.40
2019-05-14T03:14:59.520Z,25.93
2019-05-14T03:17:25.908Z,19.17
2019-05-14T03:19:53.427Z,18.83
2019-05-14T03:22:26.455Z,19.73
2019-05-14T03:24:50.196Z,18.20
2019-05-14T03:27:19.349Z,22.23
2019-05-14T03:29:51.710Z,19.57
2019-05-14T03:32:22.438Z,17.07
2019-05-14T03:34:52.122Z,18.43
2019-05-14T03:37:22.655Z,17.13
2019-05-14T03:39:45.262Z,22.53
2019-05-14T03:42:13.387Z,19.33
2019-05-14T03:44:40.280Z,18.77
2019-05-14T03:47:10.166Z,18.37
2019-05-14T03:49:35.270Z,18.83
2019-05-14T03:52:01.859Z,22.40
2019-05-14T03:54:29.824Z,22.93
2019-05-14T03:57:00.120Z,21.03
2019-05-14T03:59:25.168Z,16.47
2019-05-14T04:01:51.750Z,18.30
2019-05-14T04:04:19.442Z,18.77
2019-05-14T04:06:49.712Z,18.03
2019-05-14T04:09:20.125Z,23.73
2019-05-14T04:11:50.145Z,19.57
2019-05-14T04:14:19.859Z,23.17
2019-05-14T04:17:01.309Z,22.37
2019-05-14T04:19:21.574Z,28.57
2019-05-14T04:21:49.424Z,27.70
2019-05-14T04:24:20.144Z,28.40
2019-05-14T04:26:58.456Z,22.27
2019-05-14T04:29:24.492Z,23.93
2019-05-14T04:31:54.068Z,24.77
2019-05-14T04:34:24.171Z,20.03
2019-05-14T04:36:59.091Z,21.10
2019-05-14T04:39:25.323Z,23.00
2019-05-14T04:41:51.614Z,23.33
2019-05-14T04:44:19.853Z,19.17
2019-05-14T04:46:49.337Z,21.83
2019-05-14T04:49:19.716Z,25.23
2019-05-14T04:51:45.188Z,21.17
2019-05-14T04:54:11.554Z,21.60
2019-05-14T04:56:40.046Z,23.30
2019-05-14T04:59:10.053Z,22.90
2019-05-14T05:01:40.114Z,27.27
2019-05-14T05:04:05.809Z,24.50
2019-05-14T05:06:33.527Z,19.33
2019-05-14T05:09:00.355Z,19.13
2019-05-14T05:11:29.174Z,22.17
2019-05-14T05:13:55.377Z,20.47
2019-05-14T05:16:21.762Z,22.77
2019-05-14T05:18:49.189Z,21.93
2019-05-14T05:21:15.882Z,19.43
2019-05-14T05:23:41.981Z,22.20
2019-05-14T05:26:09.141Z,19.53
2019-05-14T05:28:35.707Z,20.17
2019-05-14T05:31:03.262Z,22.07
2019-05-14T05:33:29.588Z,22.90
2019-05-14T05:35:55.973Z,22.77
2019-05-14T05:38:22.113Z,22.70
2019-05-14T05:40:48.702Z,24.20
2019-05-14T05:43:15.098Z,23.10
2019-05-14T05:45:41.414Z,21.47
2019-05-14T05:48:08.210Z,22.73
2019-05-14T05:50:34.624Z,22.60
2019-05-14T05:53:00.726Z,23.33
2019-05-14T05:55:28.772Z,20.30
2019-05-14T05:57:55.181Z,22.00
2019-05-14T06:00:33.744Z,19.70
2019-05-14T06:03:00.006Z,21.07
2019-05-14T06:05:26.232Z,18.53
2019-05-14T06:07:52.526Z,22.03
2019-05-14T06:10:18.847Z,22.17
2019-05-14T06:12:45.021Z,20.67
2019-05-14T06:15:14.258Z,17.20
2019-05-14T06:17:39.545Z,21.07
2019-05-14T06:20:08.388Z,18.60
2019-05-14T06:22:34.471Z,19.23
2019-05-14T06:25:00.617Z,23.90
2019-05-14T06:27:28.800Z,18.50
2019-05-14T06:29:55.201Z,22.33
2019-05-14T06:32:21.415Z,19.30
2019-05-14T06:34:48.841Z,21.23
2019-05-14T06:37:15.304Z,18.77
2019-05-14T06:39:41.526Z,21.03
2019-05-14T06:42:08.818Z,24.13
2019-05-14T06:44:35.121Z,20.77
2019-05-14T06:47:01.324Z,18.57
2019-05-14T06:49:28.964Z,21.10
2019-05-14T06:51:55.338Z,20.70
2019-05-14T06:54:21.421Z,20.97
2019-05-14T06:56:48.938Z,20.17
2019-05-14T06:59:15.346Z,20.67
2019-05-14T07:01:41.579Z,17.90
2019-05-14T07:04:08.828Z,22.50
2019-05-14T07:06:35.200Z,23.30
2019-05-14T07:09:01.521Z,17.83
2019-05-14T07:11:29.345Z,17.83
2019-05-14T07:13:58.077Z,22.63
2019-05-14T07:16:24.341Z,17.73
2019-05-14T07:18:53.910Z,20.17
2019-05-14T07:21:18.852Z,19.73
2019-05-14T07:23:45.121Z,16.63
2019-05-14T07:26:11.453Z,20.20
2019-05-14T07:28:42.011Z,18.23
2019-05-14T07:31:06.048Z,21.20
2019-05-14T07:33:32.375Z,19.93
2019-05-14T07:35:59.340Z,21.53
2019-05-14T07:38:28.253Z,18.67
2019-05-14T07:40:54.207Z,18.03
2019-05-14T07:43:20.468Z,20.30
2019-05-14T07:45:48.902Z,17.63
2019-05-14T07:48:14.857Z,19.27
2019-05-14T07:50:41.178Z,18.43
2019-05-14T07:53:09.009Z,17.43
2019-05-14T07:55:38.506Z,18.70
2019-05-14T07:58:04.448Z,16.57
2019-05-14T08:00:30.981Z,16.27
2019-05-14T08:02:58.167Z,17.67
2019-05-14T08:05:24.699Z,14.60
2019-05-14T08:07:50.862Z,15.43
2019-05-14T08:10:18.616Z,14.17
2019-05-14T08:12:44.935Z,15.33
2019-05-14T08:15:18.293Z,15.60
2019-05-14T08:17:40.160Z,16.73
2019-05-14T08:20:08.965Z,15.70
2019-05-14T08:22:35.575Z,16.50
2019-05-14T08:25:03.489Z,17.47
2019-05-14T08:27:31.157Z,17.07
2019-05-14T08:29:58.934Z,15.90
2019-05-14T08:32:25.396Z,16.03
2019-05-14T08:34:51.527Z,16.10
2019-05-14T08:37:19.152Z,13.40
2019-05-14T08:39:48.522Z,15.43
2019-05-14T08:42:14.360Z,12.57
2019-05-14T08:44:40.725Z,12.73
2019-05-14T08:47:09.323Z,14.70
2019-05-14T08:49:42.437Z,13.57
2019-05-14T08:52:03.458Z,14.17
2019-05-14T08:54:29.581Z,16.03
2019-05-14T08:56:58.260Z,14.80
2019-05-14T08:59:23.955Z,13.77
2019-05-14T09:02:01.886Z,18.40
2019-05-14T09:04:22.236Z,11.77
2019-05-14T09:06:48.747Z,12.37
2019-05-14T09:09:14.724Z,15.47
2019-05-14T09:11:45.165Z,12.90
2019-05-14T09:14:10.883Z,12.80
2019-05-14T09:16:46.165Z,11.40
2019-05-14T09:19:05.967Z,11.17
2019-05-14T09:21:32.229Z,9.10
2019-05-14T09:23:58.834Z,10.73
2019-05-14T09:26:25.166Z,12.60
2019-05-14T09:28:51.381Z,10.90
2019-05-14T09:31:19.597Z,10.23
2019-05-14T09:33:49.157Z,11.50
2019-05-14T09:36:19.409Z,13.17
2019-05-14T09:38:42.889Z,14.23
2019-05-14T09:41:14.915Z,10.63
2019-05-14T09:43:39.316Z,13.47
2019-05-14T09:46:09.006Z,12.27
2019-05-14T09:48:35.282Z,12.57
2019-05-14T09:51:02.488Z,11.50
2019-05-14T09:53:28.988Z,11.60
2019-05-14T09:55:55.350Z,11.23
2019-05-14T09:58:21.659Z,10.33
2019-05-14T10:00:48.645Z,11.13
2019-05-14T10:03:15.070Z,11.33
2019-05-14T10:05:41.518Z,10.03
2019-05-14T10:08:08.950Z,8.47
2019-05-14T10:10:35.524Z,7.67
2019-05-14T10:13:02.050Z,10.67
2019-05-14T10:15:28.801Z,9.23
2019-05-14T10:17:55.321Z,11.20
2019-05-14T10:20:36.371Z,8.27
2019-05-14T10:22:50.709Z,11.40
2019-05-14T10:25:18.150Z,8.87
2019-05-14T10:27:44.549Z,9.83
2019-05-14T10:30:11.243Z,8.63
2019-05-14T10:32:41.357Z,10.53
2019-05-14T10:35:08.396Z,12.67
2019-05-14T10:37:34.490Z,11.37
2019-05-14T10:40:00.940Z,14.07
2019-05-14T10:42:29.351Z,9.07
2019-05-14T10:44:55.321Z,11.57
2019-05-14T10:47:21.684Z,11.33
2019-05-14T10:49:47.898Z,9.00
2019-05-14T10:52:14.260Z,11.23
2019-05-14T10:54:55.028Z,12.07
2019-05-14T10:57:09.711Z,12.07
2019-05-14T10:59:37.356Z,12.10
2019-05-14T11:02:03.791Z,10.20
2019-05-14T11:04:30.417Z,12.53
2019-05-14T11:06:56.752Z,7.70
2019-05-14T11:09:23.019Z,11.83
2019-05-14T11:11:49.551Z,9.40
2019-05-14T11:14:19.055Z,15.33
2019-05-14T11:16:44.017Z,10.53
2019-05-14T11:19:10.274Z,10.13
2019-05-14T11:21:38.987Z,9.57
2019-05-14T11:24:05.065Z,9.87
2019-05-14T11:26:31.956Z,12.00
2019-05-14T11:28:58.663Z,10.03
2019-05-14T11:31:25.095Z,11.87
2019-05-14T11:33:51.349Z,8.47
2019-05-14T11:36:18.776Z,9.27
2019-05-14T11:38:45.329Z,11.97
2019-05-14T11:41:11.534Z,9.57
2019-05-14T11:43:39.785Z,10.90
2019-05-14T11:46:08.419Z,7.27
2019-05-14T11:48:34.183Z,6.70
2019-05-14T11:51:00.621Z,8.17
2019-05-14T11:53:26.921Z,8.03
2019-05-14T11:55:54.420Z,8.20
2019-05-14T11:58:21.540Z,8.37
2019-05-14T12:00:47.988Z,9.63
2019-05-14T12:03:14.202Z,8.68
2019-05-14T12:05:40.533Z,7.77
2019-05-14T12:08:08.645Z,8.98
2019-05-14T12:10:34.974Z,9.03
2019-05-14T12:13:01.237Z,10.03
2019-05-14T12:15:27.490Z,8.90
2019-05-14T12:17:53.804Z,7.90
2019-05-14T12:20:20.159Z,8.67
2019-05-14T12:22:48.695Z,8.27
2019-05-14T12:25:14.756Z,11.93
2019-05-14T12:27:40.979Z,8.47
2019-05-14T12:30:09.659Z,7.80
2019-05-14T12:32:39.189Z,10.60
2019-05-14T12:35:04.892Z,7.97
2019-05-14T12:37:31.142Z,8.58
2019-05-14T12:39:59.045Z,8.33
2019-05-14T12:42:25.677Z,9.13
2019-05-14T12:44:51.903Z,8.40
2019-05-14T12:47:18.928Z,8.07
2019-05-14T12:49:47.879Z,6.97
2019-05-14T12:52:22.201Z,6.47
2019-05-14T12:54:42.932Z,8.80
2019-05-14T12:57:09.210Z,7.40
2019-05-14T12:59:35.446Z,8.30
2019-05-14T13:02:01.796Z,11.90
2019-05-14T13:04:28.625Z,8.40
2019-05-14T13:06:55.091Z,9.10
2019-05-14T13:09:24.224Z,7.37
2019-05-14T13:11:50.345Z,9.47
2019-05-14T13:14:16.577Z,9.33
2019-05-14T13:16:42.895Z,6.58
2019-05-14T13:19:10.379Z,9.63
2019-05-14T13:21:38.848Z,7.42
2019-05-14T13:24:04.627Z,6.80
2019-05-14T13:26:30.959Z,9.20
2019-05-14T13:28:58.860Z,8.70
2019-05-14T13:31:25.283Z,6.60
2019-05-14T13:33:51.473Z,9.73
2019-05-14T13:36:20.566Z,10.80
2019-05-14T13:38:49.049Z,9.57
2019-05-14T13:41:14.399Z,6.40
2019-05-14T13:43:40.639Z,8.73
2019-05-14T13:46:10.381Z,5.57
2019-05-14T13:48:39.590Z,8.40
2019-05-14T13:51:04.996Z,5.93
2019-05-14T13:53:31.304Z,5.90
2019-05-14T13:55:58.057Z,5.57
2019-05-14T13:58:24.243Z,6.23
2019-05-14T14:00:52.056Z,9.67
2019-05-14T14:03:19.951Z,7.97
2019-05-14T14:05:49.533Z,6.50
2019-05-14T14:08:19.122Z,9.37
2019-05-14T14:10:46.596Z,6.63
2019-05-14T14:13:13.043Z,6.67
2019-05-14T14:15:39.403Z,5.50
2019-05-14T14:18:05.623Z,7.60
2019-05-14T14:20:31.875Z,8.23
2019-05-14T14:22:58.719Z,6.17
2019-05-14T14:25:26.153Z,4.33
2019-05-14T14:27:52.379Z,6.20
2019-05-14T14:30:19.433Z,6.27
2019-05-14T14:32:49.263Z,5.40
2019-05-14T14:35:14.552Z,4.83
2019-05-14T14:37:40.972Z,6.70
2019-05-14T14:40:10.091Z,7.10
2019-05-14T14:42:39.573Z,8.93
2019-05-14T14:45:05.691Z,6.57
2019-05-14T14:47:31.926Z,6.73
2019-05-14T14:50:00.408Z,6.30
2019-05-14T14:52:29.163Z,5.17
2019-05-14T14:54:54.420Z,7.47
2019-05-14T14:57:20.688Z,7.00
2019-05-14T14:59:48.515Z,5.83
2019-05-14T15:02:15.242Z,5.87
2019-05-14T15:04:41.608Z,9.23
2019-05-14T15:07:09.732Z,4.40
2019-05-14T15:09:36.110Z,9.90
2019-05-14T15:12:02.771Z,5.27
2019-05-14T15:14:29.787Z,4.97
2019-05-14T15:16:56.349Z,7.80
2019-05-14T15:19:22.721Z,4.87
2019-05-14T15:21:50.051Z,5.17
2019-05-14T15:24:19.340Z,7.00
2019-05-14T15:26:44.641Z,6.03
2019-05-14T15:29:10.886Z,7.47
2019-05-14T15:31:38.581Z,5.97
2019-05-14T15:34:08.735Z,6.90
2019-05-14T15:36:34.208Z,6.40
2019-05-14T15:39:00.456Z,9.37
2019-05-14T15:41:29.466Z,6.50
2019-05-14T15:43:54.903Z,9.50
2019-05-14T15:46:22.520Z,4.00
2019-05-14T15:48:51.640Z,4.57
2019-05-14T15:51:19.502Z,5.37
2019-05-14T15:54:04.960Z,7.00
2019-05-14T15:56:14.518Z,7.87
2019-05-14T15:58:41.113Z,7.30
2019-05-14T16:01:10.135Z,6.07
2019-05-14T16:03:35.565Z,7.53
2019-05-14T16:06:01.805Z,5.23
2019-05-14T16:08:29.552Z,5.00
2019-05-14T16:11:00.073Z,5.67
2019-05-14T16:13:24.462Z,8.13
2019-05-14T16:15:50.945Z,5.63
2019-05-14T16:18:21.648Z,5.33
2019-05-14T16:20:45.578Z,11.77
2019-05-14T16:23:12.067Z,5.67
2019-05-14T16:25:38.305Z,7.53
2019-05-14T16:28:04.634Z,6.73
2019-05-14T16:30:30.944Z,5.57
2019-05-14T16:32:59.643Z,6.37
2019-05-14T16:35:25.434Z,6.50
2019-05-14T16:37:51.561Z,7.70
2019-05-14T16:40:19.267Z,5.20
2019-05-14T16:42:48.321Z,4.30
2019-05-14T16:45:14.315Z,4.87
2019-05-14T16:47:40.571Z,6.60
2019-05-14T16:50:08.901Z,8.87
2019-05-14T16:52:35.326Z,3.77
2019-05-14T16:55:20.241Z,6.40
2019-05-14T16:57:32.683Z,5.27
2019-05-14T16:59:59.122Z,9.60
2019-05-14T17:02:25.302Z,4.97
2019-05-14T17:04:51.594Z,9.03
2019-05-14T17:07:18.273Z,5.93
2019-05-14T17:09:44.925Z,6.30
2019-05-14T17:12:11.021Z,4.20
2019-05-14T17:14:38.534Z,8.63
2019-05-14T17:17:08.883Z,4.90
2019-05-14T17:19:34.268Z,6.57
2019-05-14T17:22:00.441Z,5.53
2019-05-14T17:24:29.179Z,8.43
2019-05-14T17:26:54.938Z,6.27
2019-05-14T17:29:21.506Z,5.07
2019-05-14T17:31:49.321Z,5.80
2019-05-14T17:34:18.390Z,8.47
2019-05-14T17:36:44.841Z,5.67
2019-05-14T17:39:11.187Z,6.40
2019-05-14T17:41:41.684Z,5.80
2019-05-14T17:44:06.144Z,9.03
2019-05-14T17:46:33.545Z,6.70
2019-05-14T17:49:00.556Z,4.77
2019-05-14T17:51:28.528Z,7.67
2019-05-14T17:53:54.874Z,5.83
2019-05-14T17:56:22.940Z,6.27
2019-05-14T17:58:52.449Z,5.33
2019-05-14T18:01:19.085Z,4.97
2019-05-14T18:03:45.691Z,5.40
2019-05-14T18:06:11.954Z,7.13
2019-05-14T18:08:38.443Z,4.73
2019-05-14T18:11:04.803Z,6.37
2019-05-14T18:13:31.295Z,4.87
2019-05-14T18:15:58.047Z,6.33
2019-05-14T18:18:24.815Z,7.97
2019-05-14T18:20:51.166Z,4.93
2019-05-14T18:23:18.526Z,6.30
2019-05-14T18:26:02.750Z,7.60
2019-05-14T18:28:14.089Z,6.63
2019-05-14T18:30:40.366Z,7.40
2019-05-14T18:33:08.004Z,7.60
2019-05-14T18:35:42.259Z,5.50
2019-05-14T18:38:03.875Z,5.50
2019-05-14T18:40:30.107Z,10.07
2019-05-14T18:42:58.678Z,7.37
2019-05-14T18:45:24.867Z,6.53
2019-05-14T18:47:51.320Z,6.37
2019-05-14T18:50:19.595Z,7.07
2019-05-14T18:52:48.370Z,5.07
2019-05-14T18:55:14.375Z,5.57
2019-05-14T18:57:40.656Z,5.13
2019-05-14T19:00:08.356Z,7.53
2019-05-14T19:02:35.117Z,7.47
2019-05-14T19:05:01.535Z,8.50
2019-05-14T19:07:28.779Z,6.50
2019-05-14T19:09:55.159Z,8.67
2019-05-14T19:12:21.429Z,5.43
2019-05-14T19:14:49.274Z,8.07
2019-05-14T19:17:18.528Z,9.77
2019-05-14T19:19:44.251Z,8.07
2019-05-14T19:22:10.627Z,11.77
2019-05-14T19:24:38.251Z,9.30
2019-05-14T19:27:04.988Z,7.10
2019-05-14T19:29:31.251Z,8.50
2019-05-14T19:31:57.593Z,8.37
2019-05-14T19:34:24.020Z,10.37
2019-05-14T19:36:50.363Z,12.20
2019-05-14T19:39:18.793Z,11.40
2019-05-14T19:41:45.160Z,8.03
2019-05-14T19:44:11.415Z,7.73
2019-05-14T19:46:38.623Z,7.53
2019-05-14T19:49:05.211Z,9.73
2019-05-14T19:51:31.334Z,8.17
2019-05-14T19:53:58.549Z,9.13
2019-05-14T19:56:24.816Z,9.70
2019-05-14T19:58:52.161Z,9.67
2019-05-14T20:01:19.369Z,11.00
2019-05-14T20:03:45.974Z,9.80
2019-05-14T20:06:12.321Z,11.67
2019-05-14T20:08:38.781Z,10.67
2019-05-14T20:11:05.316Z,10.07
2019-05-14T20:13:31.718Z,13.10
2019-05-14T20:15:59.076Z,13.83
2019-05-14T20:18:25.602Z,11.17
2019-05-14T20:20:51.916Z,11.40
2019-05-14T20:23:18.601Z,10.67
2019-05-14T20:25:45.128Z,11.73
2019-05-14T20:28:11.376Z,10.90
2019-05-14T20:30:38.597Z,11.73
2019-05-14T20:33:05.413Z,11.67
2019-05-14T20:35:35.040Z,12.33
2019-05-14T20:37:59.971Z,9.43
2019-05-14T20:40:28.369Z,10.10
2019-05-14T20:42:54.342Z,10.43
2019-05-14T20:45:20.833Z,9.13
2019-05-14T20:47:48.096Z,8.83
2019-05-14T20:50:15.663Z,9.63
2019-05-14T20:52:41.916Z,10.10
2019-05-14T20:55:09.545Z,9.70
2019-05-14T20:57:38.346Z,13.07
2019-05-14T21:00:07.575Z,17.57
2019-05-14T21:02:33.999Z,15.47
2019-05-14T21:05:04.291Z,11.60
2019-05-14T21:07:28.961Z,11.73
2019-05-14T21:09:55.451Z,10.20
2019-05-14T21:12:21.709Z,11.17
2019-05-14T21:14:49.116Z,12.67
2019-05-14T21:17:15.655Z,9.30
2019-05-14T21:19:41.895Z,8.87
2019-05-14T21:22:08.515Z,11.10
2019-05-14T21:24:35.065Z,8.23
2019-05-14T21:27:01.211Z,9.50
2019-05-14T21:29:30.542Z,8.80
2019-05-14T21:31:56.653Z,9.30
2019-05-14T21:34:22.763Z,9.73
2019-05-14T21:36:48.949Z,12.00
2019-05-14T21:39:16.269Z,11.93
2019-05-14T21:41:42.446Z,10.40
2019-05-14T21:44:10.534Z,10.27
2019-05-14T21:46:39.506Z,7.67
2019-05-14T21:49:07.655Z,9.53
2019-05-14T21:51:34.475Z,8.73
2019-05-14T21:54:00.752Z,11.00
2019-05-14T21:56:29.129Z,11.17
2019-05-14T21:58:55.403Z,9.47
2019-05-14T22:01:22.008Z,9.27
2019-05-14T22:03:48.634Z,8.73
2019-05-14T22:06:15.279Z,11.13
2019-05-14T22:08:43.553Z,11.27
2019-05-14T22:11:10.985Z,9.27
2019-05-14T22:13:39.480Z,10.23
2019-05-14T22:16:08.213Z,15.23
2019-05-14T22:18:34.314Z,10.87
2019-05-14T22:21:03.508Z,10.57
2019-05-14T22:23:29.719Z,12.03
2019-05-14T22:25:58.177Z,10.70
2019-05-14T22:28:24.458Z,12.00
2019-05-14T22:30:50.838Z,10.10
2019-05-14T22:33:18.943Z,19.47
2019-05-14T22:35:48.598Z,11.03
2019-05-14T22:38:14.907Z,10.77
2019-05-14T22:40:42.146Z,9.90
2019-05-14T22:43:09.623Z,9.27
2019-05-14T22:45:36.312Z,10.13
2019-05-14T22:48:04.692Z,8.53
2019-05-14T22:50:33.419Z,10.00
2019-05-14T22:53:00.304Z,11.17
2019-05-14T22:55:28.971Z,10.30
2019-05-14T22:57:55.077Z,10.17
2019-05-14T23:00:21.403Z,17.60
2019-05-14T23:02:48.743Z,9.63
2019-05-14T23:05:15.194Z,9.97
2019-05-14T23:07:41.304Z,9.17
2019-05-14T23:10:08.983Z,11.80
2019-05-14T23:12:35.570Z,9.40
2019-05-14T23:15:02.193Z,9.20
2019-05-14T23:17:28.597Z,9.50
2019-05-14T23:19:55.098Z,8.40
2019-05-14T23:22:21.254Z,8.93
2019-05-14T23:24:47.342Z,11.03
2019-05-14T23:27:13.672Z,7.53
2019-05-14T23:29:39.960Z,10.00
2019-05-14T23:32:08.177Z,9.20
2019-05-14T23:34:34.564Z,8.63
2019-05-14T23:37:00.765Z,8.63
2019-05-14T23:39:28.747Z,8.70
2019-05-14T23:41:55.396Z,7.57
2019-05-14T23:44:21.699Z,8.97
2019-05-14T23:46:49.251Z,10.90
2019-05-14T23:49:15.442Z,8.57
2019-05-14T23:51:41.853Z,9.40
2019-05-14T23:54:08.760Z,11.67
2019-05-14T23:56:38.426Z,10.63
2019-05-14T23:59:05.032Z,7.57
